sensor_id;sensor_type;location;lat;lon;timestamp;P1;durP1;ratioP1;P2;durP2;ratioP2
9330;SDS011;4704;50.470;12.072;2023-05-08T00:01:12;4.57;;;4.13;;
9330;SDS011;4704;50.470;12.072;2023-05-08T00:03:42;4.88;;;4.03;;
9330;SDS011;4704;50.470;12.072;2023-05-08T00:06:09;4.00;;;3.70;;
9330;SDS011;4704;50.470;12.072;2023-05-08T00:08:36;4.20;;;3.80;;
9330;SDS011;4704;50.470;12.072;2023-05-08T00:11:04;3.85;;;3.42;;
9330;SDS011;4704;50.470;12.072;2023-05-08T00:13:32;63.25;;;34.88;;
9330;SDS011;4704;50.470;12.072;2023-05-08T00:15:59;138.40;;;69.93;;
9330;SDS011;4704;50.470;12.072;2023-05-08T00:18:27;166.48;;;83.00;;
9330;SDS011;4704;50.470;12.072;2023-05-08T00:20:56;161.50;;;83.57;;
9330;SDS011;4704;50.470;12.072;2023-05-08T00:23:23;156.77;;;77.82;;
9330;SDS011;4704;50.470;12.072;2023-05-08T00:25:50;141.55;;;71.93;;
9330;SDS011;4704;50.470;12.072;2023-05-08T00:28:18;145.25;;;68.65;;
9330;SDS011;4704;50.470;12.072;2023-05-08T00:30:45;139.75;;;70.32;;
9330;SDS011;4704;50.470;12.072;2023-05-08T00:33:12;135.63;;;68.32;;
9330;SDS011;4704;50.470;12.072;2023-05-08T00:35:40;129.80;;;64.72;;
9330;SDS011;4704;50.470;12.072;2023-05-08T00:38:09;126.75;;;62.78;;
9330;SDS011;4704;50.470;12.072;2023-05-08T00:40:36;112.75;;;60.35;;
9330;SDS011;4704;50.470;12.072;2023-05-08T00:43:04;110.78;;;57.28;;
9330;SDS011;4704;50.470;12.072;2023-05-08T00:45:31;104.78;;;55.92;;
9330;SDS011;4704;50.470;12.072;2023-05-08T00:48:00;99.88;;;53.45;;
9330;SDS011;4704;50.470;12.072;2023-05-08T00:50:28;102.93;;;53.00;;
9330;SDS011;4704;50.470;12.072;2023-05-08T00:52:56;97.50;;;50.85;;
9330;SDS011;4704;50.470;12.072;2023-05-08T00:55:26;91.43;;;49.50;;
9330;SDS011;4704;50.470;12.072;2023-05-08T00:57:53;88.10;;;48.45;;
9330;SDS011;4704;50.470;12.072;2023-05-08T01:00:21;84.53;;;45.47;;
9330;SDS011;4704;50.470;12.072;2023-05-08T01:02:48;82.03;;;45.08;;
9330;SDS011;4704;50.470;12.072;2023-05-08T01:05:16;79.05;;;44.83;;
9330;SDS011;4704;50.470;12.072;2023-05-08T01:07:44;85.35;;;44.95;;
9330;SDS011;4704;50.470;12.072;2023-05-08T01:10:11;75.07;;;41.88;;
9330;SDS011;4704;50.470;12.072;2023-05-08T01:12:44;71.70;;;40.65;;
9330;SDS011;4704;50.470;12.072;2023-05-08T01:15:15;71.07;;;41.20;;
9330;SDS011;4704;50.470;12.072;2023-05-08T01:17:47;70.60;;;39.22;;
9330;SDS011;4704;50.470;12.072;2023-05-08T01:20:29;67.88;;;39.25;;
9330;SDS011;4704;50.470;12.072;2023-05-08T01:23:02;66.28;;;37.58;;
9330;SDS011;4704;50.470;12.072;2023-05-08T01:28:33;62.28;;;34.65;;
9330;SDS011;4704;50.470;12.072;2023-05-08T01:31:07;63.10;;;34.58;;
9330;SDS011;4704;50.470;12.072;2023-05-08T01:33:40;57.83;;;33.35;;
9330;SDS011;4704;50.470;12.072;2023-05-08T01:36:14;53.97;;;32.72;;
9330;SDS011;4704;50.470;12.072;2023-05-08T01:38:46;55.35;;;32.63;;
9330;SDS011;4704;50.470;12.072;2023-05-08T01:41:22;54.00;;;31.15;;
9330;SDS011;4704;50.470;12.072;2023-05-08T01:43:52;54.30;;;32.83;;
9330;SDS011;4704;50.470;12.072;2023-05-08T01:46:21;47.42;;;29.75;;
9330;SDS011;4704;50.470;12.072;2023-05-08T01:48:53;49.75;;;29.20;;
9330;SDS011;4704;50.470;12.072;2023-05-08T01:51:22;48.65;;;28.45;;
9330;SDS011;4704;50.470;12.072;2023-05-08T01:53:53;47.85;;;28.23;;
9330;SDS011;4704;50.470;12.072;2023-05-08T01:56:22;45.97;;;27.00;;
9330;SDS011;4704;50.470;12.072;2023-05-08T01:58:51;45.78;;;26.60;;
9330;SDS011;4704;50.470;12.072;2023-05-08T02:01:21;40.15;;;24.40;;
9330;SDS011;4704;50.470;12.072;2023-05-08T02:03:49;39.83;;;25.38;;
9330;SDS011;4704;50.470;12.072;2023-05-08T02:06:19;39.97;;;24.75;;
9330;SDS011;4704;50.470;12.072;2023-05-08T02:08:47;40.67;;;23.77;;
9330;SDS011;4704;50.470;12.072;2023-05-08T02:11:15;40.88;;;24.60;;
9330;SDS011;4704;50.470;12.072;2023-05-08T02:13:43;38.10;;;22.92;;
9330;SDS011;4704;50.470;12.072;2023-05-08T02:16:12;36.80;;;23.65;;
9330;SDS011;4704;50.470;12.072;2023-05-08T02:18:41;34.60;;;22.23;;
9330;SDS011;4704;50.470;12.072;2023-05-08T02:21:09;34.20;;;21.65;;
9330;SDS011;4704;50.470;12.072;2023-05-08T02:23:39;34.22;;;21.30;;
9330;SDS011;4704;50.470;12.072;2023-05-08T02:26:08;31.98;;;20.20;;
9330;SDS011;4704;50.470;12.072;2023-05-08T02:28:36;32.10;;;20.70;;
9330;SDS011;4704;50.470;12.072;2023-05-08T02:31:04;31.08;;;19.73;;
9330;SDS011;4704;50.470;12.072;2023-05-08T02:33:32;31.05;;;20.05;;
9330;SDS011;4704;50.470;12.072;2023-05-08T02:36:00;31.55;;;18.98;;
9330;SDS011;4704;50.470;12.072;2023-05-08T02:38:28;28.88;;;18.27;;
9330;SDS011;4704;50.470;12.072;2023-05-08T02:40:59;27.80;;;18.13;;
9330;SDS011;4704;50.470;12.072;2023-05-08T02:43:28;26.30;;;16.88;;
9330;SDS011;4704;50.470;12.072;2023-05-08T02:45:58;27.15;;;17.58;;
9330;SDS011;4704;50.470;12.072;2023-05-08T02:48:28;26.65;;;16.85;;
9330;SDS011;4704;50.470;12.072;2023-05-08T02:51:01;24.17;;;15.82;;
9330;SDS011;4704;50.470;12.072;2023-05-08T02:53:33;25.50;;;16.15;;
9330;SDS011;4704;50.470;12.072;2023-05-08T02:56:04;25.50;;;16.38;;
9330;SDS011;4704;50.470;12.072;2023-05-08T02:58:36;24.23;;;16.05;;
9330;SDS011;4704;50.470;12.072;2023-05-08T03:01:06;23.23;;;14.93;;
9330;SDS011;4704;50.470;12.072;2023-05-08T03:03:35;23.38;;;14.40;;
9330;SDS011;4704;50.470;12.072;2023-05-08T03:06:06;23.85;;;14.50;;
9330;SDS011;4704;50.470;12.072;2023-05-08T03:08:34;19.85;;;13.35;;
9330;SDS011;4704;50.470;12.072;2023-05-08T03:11:06;19.55;;;13.38;;
9330;SDS011;4704;50.470;12.072;2023-05-08T03:13:34;20.50;;;13.93;;
9330;SDS011;4704;50.470;12.072;2023-05-08T03:16:04;18.70;;;12.98;;
9330;SDS011;4704;50.470;12.072;2023-05-08T03:18:34;19.00;;;13.32;;
9330;SDS011;4704;50.470;12.072;2023-05-08T03:21:02;20.50;;;13.45;;
9330;SDS011;4704;50.470;12.072;2023-05-08T03:23:30;16.98;;;12.30;;
9330;SDS011;4704;50.470;12.072;2023-05-08T03:25:59;17.25;;;11.77;;
9330;SDS011;4704;50.470;12.072;2023-05-08T03:28:29;17.38;;;11.65;;
9330;SDS011;4704;50.470;12.072;2023-05-08T03:30:57;16.25;;;11.73;;
9330;SDS011;4704;50.470;12.072;2023-05-08T03:33:24;15.45;;;11.35;;
9330;SDS011;4704;50.470;12.072;2023-05-08T03:35:52;17.10;;;11.30;;
9330;SDS011;4704;50.470;12.072;2023-05-08T03:38:20;15.25;;;11.15;;
9330;SDS011;4704;50.470;12.072;2023-05-08T03:40:47;15.60;;;11.38;;
9330;SDS011;4704;50.470;12.072;2023-05-08T03:43:15;15.15;;;10.82;;
9330;SDS011;4704;50.470;12.072;2023-05-08T03:45:44;15.68;;;10.55;;
9330;SDS011;4704;50.470;12.072;2023-05-08T03:48:12;13.77;;;10.23;;
9330;SDS011;4704;50.470;12.072;2023-05-08T03:50:40;14.43;;;10.10;;
9330;SDS011;4704;50.470;12.072;2023-05-08T03:53:08;14.10;;;10.07;;
9330;SDS011;4704;50.470;12.072;2023-05-08T03:55:35;14.93;;;10.25;;
9330;SDS011;4704;50.470;12.072;2023-05-08T03:58:04;13.35;;;10.07;;
9330;SDS011;4704;50.470;12.072;2023-05-08T04:00:36;13.93;;;9.73;;
9330;SDS011;4704;50.470;12.072;2023-05-08T04:03:15;12.43;;;9.52;;
9330;SDS011;4704;50.470;12.072;2023-05-08T04:05:46;12.00;;;8.85;;
9330;SDS011;4704;50.470;12.072;2023-05-08T04:08:18;11.68;;;8.70;;
9330;SDS011;4704;50.470;12.072;2023-05-08T04:10:47;10.60;;;8.30;;
9330;SDS011;4704;50.470;12.072;2023-05-08T04:13:17;10.68;;;8.45;;
9330;SDS011;4704;50.470;12.072;2023-05-08T04:15:47;11.48;;;8.55;;
9330;SDS011;4704;50.470;12.072;2023-05-08T04:18:21;10.23;;;7.88;;
9330;SDS011;4704;50.470;12.072;2023-05-08T04:20:50;11.18;;;7.88;;
9330;SDS011;4704;50.470;12.072;2023-05-08T04:23:19;8.25;;;7.32;;
9330;SDS011;4704;50.470;12.072;2023-05-08T04:25:47;10.00;;;7.60;;
9330;SDS011;4704;50.470;12.072;2023-05-08T04:28:15;8.90;;;7.75;;
9330;SDS011;4704;50.470;12.072;2023-05-08T04:30:44;9.95;;;7.05;;
9330;SDS011;4704;50.470;12.072;2023-05-08T04:33:11;10.20;;;7.07;;
9330;SDS011;4704;50.470;12.072;2023-05-08T04:35:40;9.35;;;7.10;;
9330;SDS011;4704;50.470;12.072;2023-05-08T04:38:07;8.48;;;6.88;;
9330;SDS011;4704;50.470;12.072;2023-05-08T04:40:35;7.50;;;6.75;;
9330;SDS011;4704;50.470;12.072;2023-05-08T04:43:02;8.23;;;6.43;;
9330;SDS011;4704;50.470;12.072;2023-05-08T04:45:30;10.20;;;7.07;;
9330;SDS011;4704;50.470;12.072;2023-05-08T04:47:57;8.88;;;6.90;;
9330;SDS011;4704;50.470;12.072;2023-05-08T04:50:24;9.40;;;6.55;;
9330;SDS011;4704;50.470;12.072;2023-05-08T04:52:53;8.10;;;6.43;;
9330;SDS011;4704;50.470;12.072;2023-05-08T04:55:21;7.07;;;6.00;;
9330;SDS011;4704;50.470;12.072;2023-05-08T04:57:48;6.20;;;5.60;;
9330;SDS011;4704;50.470;12.072;2023-05-08T05:00:16;7.05;;;5.75;;
9330;SDS011;4704;50.470;12.072;2023-05-08T05:02:44;6.65;;;5.60;;
9330;SDS011;4704;50.470;12.072;2023-05-08T05:05:11;6.28;;;5.53;;
9330;SDS011;4704;50.470;12.072;2023-05-08T05:07:38;7.35;;;6.07;;
9330;SDS011;4704;50.470;12.072;2023-05-08T05:10:09;6.78;;;5.43;;
9330;SDS011;4704;50.470;12.072;2023-05-08T05:12:40;6.40;;;5.75;;
9330;SDS011;4704;50.470;12.072;2023-05-08T05:15:09;7.20;;;5.25;;
9330;SDS011;4704;50.470;12.072;2023-05-08T05:17:37;5.60;;;5.00;;
9330;SDS011;4704;50.470;12.072;2023-05-08T05:20:05;6.35;;;5.47;;
9330;SDS011;4704;50.470;12.072;2023-05-08T05:22:33;6.13;;;5.22;;
9330;SDS011;4704;50.470;12.072;2023-05-08T05:25:00;6.22;;;5.35;;
9330;SDS011;4704;50.470;12.072;2023-05-08T05:27:29;5.68;;;5.07;;
9330;SDS011;4704;50.470;12.072;2023-05-08T05:29:56;6.20;;;4.97;;
9330;SDS011;4704;50.470;12.072;2023-05-08T05:32:24;5.15;;;4.65;;
9330;SDS011;4704;50.470;12.072;2023-05-08T05:34:51;5.82;;;5.05;;
9330;SDS011;4704;50.470;12.072;2023-05-08T05:37:19;5.57;;;4.80;;
9330;SDS011;4704;50.470;12.072;2023-05-08T05:39:47;5.38;;;4.60;;
9330;SDS011;4704;50.470;12.072;2023-05-08T05:42:14;5.30;;;4.80;;
9330;SDS011;4704;50.470;12.072;2023-05-08T05:44:43;5.82;;;4.82;;
9330;SDS011;4704;50.470;12.072;2023-05-08T05:47:10;4.78;;;4.32;;
9330;SDS011;4704;50.470;12.072;2023-05-08T05:49:38;5.03;;;4.53;;
9330;SDS011;4704;50.470;12.072;2023-05-08T05:52:07;5.03;;;4.50;;
9330;SDS011;4704;50.470;12.072;2023-05-08T05:54:34;4.55;;;4.13;;
9330;SDS011;4704;50.470;12.072;2023-05-08T05:57:02;4.30;;;3.90;;
9330;SDS011;4704;50.470;12.072;2023-05-08T05:59:29;5.90;;;4.10;;
9330;SDS011;4704;50.470;12.072;2023-05-08T06:01:58;4.55;;;4.15;;
9330;SDS011;4704;50.470;12.072;2023-05-08T06:04:25;4.07;;;3.70;;
9330;SDS011;4704;50.470;12.072;2023-05-08T06:06:53;4.35;;;3.95;;
9330;SDS011;4704;50.470;12.072;2023-05-08T06:09:21;4.35;;;3.95;;
9330;SDS011;4704;50.470;12.072;2023-05-08T06:11:48;4.45;;;4.05;;
9330;SDS011;4704;50.470;12.072;2023-05-08T06:14:15;4.40;;;3.85;;
9330;SDS011;4704;50.470;12.072;2023-05-08T06:16:43;4.43;;;4.03;;
9330;SDS011;4704;50.470;12.072;2023-05-08T06:19:11;5.03;;;3.70;;
9330;SDS011;4704;50.470;12.072;2023-05-08T06:21:39;4.65;;;4.25;;
9330;SDS011;4704;50.470;12.072;2023-05-08T06:24:06;4.18;;;3.80;;
9330;SDS011;4704;50.470;12.072;2023-05-08T06:26:33;4.10;;;3.70;;
9330;SDS011;4704;50.470;12.072;2023-05-08T06:29:01;3.92;;;3.53;;
9330;SDS011;4704;50.470;12.072;2023-05-08T06:31:28;4.55;;;4.10;;
9330;SDS011;4704;50.470;12.072;2023-05-08T06:33:55;4.38;;;3.97;;
9330;SDS011;4704;50.470;12.072;2023-05-08T06:36:24;4.80;;;3.80;;
9330;SDS011;4704;50.470;12.072;2023-05-08T06:38:52;4.07;;;3.67;;
9330;SDS011;4704;50.470;12.072;2023-05-08T06:41:19;4.25;;;3.85;;
9330;SDS011;4704;50.470;12.072;2023-05-08T06:43:47;4.30;;;3.90;;
9330;SDS011;4704;50.470;12.072;2023-05-08T06:46:14;4.07;;;3.67;;
9330;SDS011;4704;50.470;12.072;2023-05-08T06:48:42;4.20;;;3.90;;
9330;SDS011;4704;50.470;12.072;2023-05-08T06:51:09;4.20;;;3.80;;
9330;SDS011;4704;50.470;12.072;2023-05-08T06:53:38;5.15;;;4.13;;
9330;SDS011;4704;50.470;12.072;2023-05-08T06:56:07;4.10;;;3.70;;
9330;SDS011;4704;50.470;12.072;2023-05-08T06:58:38;3.80;;;3.50;;
9330;SDS011;4704;50.470;12.072;2023-05-08T07:01:07;4.07;;;3.78;;
9330;SDS011;4704;50.470;12.072;2023-05-08T07:03:35;3.90;;;3.50;;
9330;SDS011;4704;50.470;12.072;2023-05-08T07:06:05;4.88;;;3.58;;
9330;SDS011;4704;50.470;12.072;2023-05-08T07:08:33;4.10;;;3.70;;
9330;SDS011;4704;50.470;12.072;2023-05-08T07:11:02;4.03;;;3.72;;
9330;SDS011;4704;50.470;12.072;2023-05-08T07:13:29;4.18;;;3.78;;
9330;SDS011;4704;50.470;12.072;2023-05-08T07:15:57;4.45;;;4.10;;
9330;SDS011;4704;50.470;12.072;2023-05-08T07:18:25;3.85;;;3.55;;
9330;SDS011;4704;50.470;12.072;2023-05-08T07:20:52;4.05;;;3.75;;
9330;SDS011;4704;50.470;12.072;2023-05-08T07:23:20;4.20;;;3.90;;
9330;SDS011;4704;50.470;12.072;2023-05-08T07:25:47;3.95;;;3.65;;
9330;SDS011;4704;50.470;12.072;2023-05-08T07:28:16;4.25;;;3.85;;
9330;SDS011;4704;50.470;12.072;2023-05-08T07:30:43;3.92;;;3.63;;
9330;SDS011;4704;50.470;12.072;2023-05-08T07:33:10;4.13;;;3.83;;
9330;SDS011;4704;50.470;12.072;2023-05-08T07:35:38;3.55;;;3.25;;
9330;SDS011;4704;50.470;12.072;2023-05-08T07:38:05;4.03;;;3.67;;
9330;SDS011;4704;50.470;12.072;2023-05-08T07:40:33;4.22;;;3.92;;
9330;SDS011;4704;50.470;12.072;2023-05-08T07:43:00;3.90;;;3.60;;
9330;SDS011;4704;50.470;12.072;2023-05-08T07:45:29;4.15;;;3.78;;
9330;SDS011;4704;50.470;12.072;2023-05-08T07:47:57;4.03;;;3.72;;
9330;SDS011;4704;50.470;12.072;2023-05-08T07:50:25;4.20;;;3.80;;
9330;SDS011;4704;50.470;12.072;2023-05-08T07:52:52;3.97;;;3.67;;
9330;SDS011;4704;50.470;12.072;2023-05-08T07:55:19;4.18;;;3.58;;
9330;SDS011;4704;50.470;12.072;2023-05-08T07:57:47;4.53;;;4.20;;
9330;SDS011;4704;50.470;12.072;2023-05-08T08:00:15;3.80;;;3.50;;
9330;SDS011;4704;50.470;12.072;2023-05-08T08:02:44;4.10;;;3.80;;
9330;SDS011;4704;50.470;12.072;2023-05-08T08:05:11;4.20;;;3.80;;
9330;SDS011;4704;50.470;12.072;2023-05-08T08:07:39;3.67;;;3.38;;
9330;SDS011;4704;50.470;12.072;2023-05-08T08:10:06;4.20;;;3.80;;
9330;SDS011;4704;50.470;12.072;2023-05-08T08:12:34;4.10;;;3.80;;
9330;SDS011;4704;50.470;12.072;2023-05-08T08:15:02;3.63;;;3.33;;
9330;SDS011;4704;50.470;12.072;2023-05-08T08:17:29;3.85;;;3.55;;
9330;SDS011;4704;50.470;12.072;2023-05-08T08:19:58;3.92;;;3.63;;
9330;SDS011;4704;50.470;12.072;2023-05-08T08:22:25;3.63;;;3.42;;
9330;SDS011;4704;50.470;12.072;2023-05-08T08:24:53;4.10;;;3.80;;
9330;SDS011;4704;50.470;12.072;2023-05-08T08:27:21;4.00;;;3.70;;
9330;SDS011;4704;50.470;12.072;2023-05-08T08:29:48;3.72;;;3.42;;
9330;SDS011;4704;50.470;12.072;2023-05-08T08:32:16;3.92;;;3.63;;
9330;SDS011;4704;50.470;12.072;2023-05-08T08:34:43;3.88;;;3.60;;
9330;SDS011;4704;50.470;12.072;2023-05-08T08:37:12;4.25;;;3.85;;
9330;SDS011;4704;50.470;12.072;2023-05-08T08:39:40;3.97;;;3.67;;
9330;SDS011;4704;50.470;12.072;2023-05-08T08:42:07;3.90;;;3.60;;
9330;SDS011;4704;50.470;12.072;2023-05-08T08:44:34;3.85;;;3.55;;
9330;SDS011;4704;50.470;12.072;2023-05-08T08:47:02;3.63;;;3.40;;
9330;SDS011;4704;50.470;12.072;2023-05-08T08:49:31;3.92;;;3.63;;
9330;SDS011;4704;50.470;12.072;2023-05-08T08:52:01;3.95;;;3.65;;
9330;SDS011;4704;50.470;12.072;2023-05-08T08:54:32;3.75;;;3.45;;
9330;SDS011;4704;50.470;12.072;2023-05-08T08:57:00;3.60;;;3.38;;
9330;SDS011;4704;50.470;12.072;2023-05-08T08:59:32;3.83;;;3.53;;
9330;SDS011;4704;50.470;12.072;2023-05-08T09:02:00;3.80;;;3.50;;
9330;SDS011;4704;50.470;12.072;2023-05-08T09:04:31;3.50;;;3.25;;
9330;SDS011;4704;50.470;12.072;2023-05-08T09:06:59;4.00;;;3.70;;
9330;SDS011;4704;50.470;12.072;2023-05-08T09:09:30;3.60;;;3.38;;
9330;SDS011;4704;50.470;12.072;2023-05-08T09:11:59;3.75;;;3.45;;
9330;SDS011;4704;50.470;12.072;2023-05-08T09:14:27;3.90;;;3.60;;
9330;SDS011;4704;50.470;12.072;2023-05-08T09:16:54;3.55;;;3.35;;
9330;SDS011;4704;50.470;12.072;2023-05-08T09:19:22;3.72;;;3.42;;
9330;SDS011;4704;50.470;12.072;2023-05-08T09:21:50;4.05;;;3.75;;
9330;SDS011;4704;50.470;12.072;2023-05-08T09:24:18;3.90;;;3.60;;
9330;SDS011;4704;50.470;12.072;2023-05-08T09:26:48;3.80;;;3.60;;
9330;SDS011;4704;50.470;12.072;2023-05-08T09:29:16;4.00;;;3.70;;
9330;SDS011;4704;50.470;12.072;2023-05-08T09:31:44;3.65;;;3.45;;
9330;SDS011;4704;50.470;12.072;2023-05-08T09:34:21;3.65;;;3.40;;
9330;SDS011;4704;50.470;12.072;2023-05-08T09:36:48;4.05;;;3.75;;
9330;SDS011;4704;50.470;12.072;2023-05-08T09:39:20;3.38;;;3.17;;
9330;SDS011;4704;50.470;12.072;2023-05-08T09:41:58;3.75;;;3.45;;
9330;SDS011;4704;50.470;12.072;2023-05-08T09:44:26;4.05;;;3.75;;
9330;SDS011;4704;50.470;12.072;2023-05-08T09:47:08;3.55;;;3.35;;
9330;SDS011;4704;50.470;12.072;2023-05-08T09:49:36;3.50;;;3.30;;
9330;SDS011;4704;50.470;12.072;2023-05-08T09:52:04;3.60;;;3.40;;
9330;SDS011;4704;50.470;12.072;2023-05-08T09:54:32;3.45;;;3.25;;
9330;SDS011;4704;50.470;12.072;2023-05-08T09:57:01;3.30;;;3.10;;
9330;SDS011;4704;50.470;12.072;2023-05-08T09:59:38;3.50;;;3.30;;
9330;SDS011;4704;50.470;12.072;2023-05-08T10:02:11;3.63;;;3.42;;
9330;SDS011;4704;50.470;12.072;2023-05-08T10:04:40;3.40;;;3.20;;
9330;SDS011;4704;50.470;12.072;2023-05-08T10:07:07;3.80;;;3.50;;
9330;SDS011;4704;50.470;12.072;2023-05-08T10:09:34;3.55;;;3.35;;
9330;SDS011;4704;50.470;12.072;2023-05-08T10:12:03;3.55;;;3.35;;
9330;SDS011;4704;50.470;12.072;2023-05-08T10:14:31;3.60;;;3.40;;
9330;SDS011;4704;50.470;12.072;2023-05-08T10:16:59;3.55;;;3.25;;
9330;SDS011;4704;50.470;12.072;2023-05-08T10:19:31;3.33;;;3.13;;
9330;SDS011;4704;50.470;12.072;2023-05-08T10:21:59;3.80;;;3.50;;
9330;SDS011;4704;50.470;12.072;2023-05-08T10:24:32;3.40;;;3.20;;
9330;SDS011;4704;50.470;12.072;2023-05-08T10:27:02;3.20;;;3.00;;
9330;SDS011;4704;50.470;12.072;2023-05-08T10:29:33;3.42;;;3.13;;
9330;SDS011;4704;50.470;12.072;2023-05-08T10:32:05;3.30;;;3.10;;
9330;SDS011;4704;50.470;12.072;2023-05-08T10:34:35;3.30;;;3.10;;
9330;SDS011;4704;50.470;12.072;2023-05-08T10:37:06;3.40;;;3.20;;
9330;SDS011;4704;50.470;12.072;2023-05-08T10:39:35;3.38;;;3.10;;
9330;SDS011;4704;50.470;12.072;2023-05-08T10:42:03;3.40;;;3.20;;
9330;SDS011;4704;50.470;12.072;2023-05-08T10:44:30;3.35;;;3.15;;
9330;SDS011;4704;50.470;12.072;2023-05-08T10:47:00;3.30;;;3.10;;
9330;SDS011;4704;50.470;12.072;2023-05-08T10:49:34;3.50;;;3.20;;
9330;SDS011;4704;50.470;12.072;2023-05-08T10:52:08;3.60;;;3.30;;
9330;SDS011;4704;50.470;12.072;2023-05-08T10:54:37;3.42;;;3.13;;
9330;SDS011;4704;50.470;12.072;2023-05-08T10:57:09;3.30;;;3.10;;
9330;SDS011;4704;50.470;12.072;2023-05-08T10:59:37;3.05;;;2.85;;
9330;SDS011;4704;50.470;12.072;2023-05-08T11:02:06;3.20;;;3.00;;
9330;SDS011;4704;50.470;12.072;2023-05-08T11:04:33;3.35;;;3.15;;
9330;SDS011;4704;50.470;12.072;2023-05-08T11:07:02;3.22;;;3.03;;
9330;SDS011;4704;50.470;12.072;2023-05-08T11:09:45;3.17;;;2.97;;
9330;SDS011;4704;50.470;12.072;2023-05-08T11:12:19;3.45;;;3.25;;
9330;SDS011;4704;50.470;12.072;2023-05-08T11:14:54;3.22;;;3.03;;
9330;SDS011;4704;50.470;12.072;2023-05-08T11:17:23;3.20;;;3.00;;
9330;SDS011;4704;50.470;12.072;2023-05-08T11:19:55;3.10;;;2.90;;
9330;SDS011;4704;50.470;12.072;2023-05-08T11:22:23;2.80;;;2.60;;
9330;SDS011;4704;50.470;12.072;2023-05-08T11:24:53;3.10;;;2.90;;
9330;SDS011;4704;50.470;12.072;2023-05-08T11:27:30;3.28;;;3.08;;
9330;SDS011;4704;50.470;12.072;2023-05-08T11:30:17;3.13;;;2.92;;
9330;SDS011;4704;50.470;12.072;2023-05-08T11:32:59;3.47;;;3.28;;
9330;SDS011;4704;50.470;12.072;2023-05-08T11:35:41;2.80;;;2.60;;
9330;SDS011;4704;50.470;12.072;2023-05-08T11:38:11;2.88;;;2.67;;
9330;SDS011;4704;50.470;12.072;2023-05-08T11:40:43;2.83;;;2.63;;
9330;SDS011;4704;50.470;12.072;2023-05-08T11:43:18;2.80;;;2.60;;
9330;SDS011;4704;50.470;12.072;2023-05-08T11:45:45;3.10;;;2.90;;
9330;SDS011;4704;50.470;12.072;2023-05-08T11:48:14;2.97;;;2.78;;
9330;SDS011;4704;50.470;12.072;2023-05-08T11:50:42;3.15;;;2.85;;
9330;SDS011;4704;50.470;12.072;2023-05-08T11:53:10;2.85;;;2.65;;
9330;SDS011;4704;50.470;12.072;2023-05-08T11:55:38;2.88;;;2.67;;
9330;SDS011;4704;50.470;12.072;2023-05-08T11:58:10;2.83;;;2.63;;
9330;SDS011;4704;50.470;12.072;2023-05-08T12:00:39;2.88;;;2.67;;
9330;SDS011;4704;50.470;12.072;2023-05-08T12:03:10;3.05;;;2.85;;
9330;SDS011;4704;50.470;12.072;2023-05-08T12:05:40;2.95;;;2.75;;
9330;SDS011;4704;50.470;12.072;2023-05-08T12:08:08;2.40;;;2.30;;
9330;SDS011;4704;50.470;12.072;2023-05-08T12:10:39;2.85;;;2.65;;
9330;SDS011;4704;50.470;12.072;2023-05-08T12:13:15;2.70;;;2.50;;
9330;SDS011;4704;50.470;12.072;2023-05-08T12:15:44;2.80;;;2.60;;
9330;SDS011;4704;50.470;12.072;2023-05-08T12:18:11;2.90;;;2.70;;
9330;SDS011;4704;50.470;12.072;2023-05-08T12:20:40;2.70;;;2.50;;
9330;SDS011;4704;50.470;12.072;2023-05-08T12:23:07;2.65;;;2.45;;
9330;SDS011;4704;50.470;12.072;2023-05-08T12:25:35;2.40;;;2.30;;
9330;SDS011;4704;50.470;12.072;2023-05-08T12:28:04;2.58;;;2.40;;
9330;SDS011;4704;50.470;12.072;2023-05-08T12:30:33;2.60;;;2.42;;
9330;SDS011;4704;50.470;12.072;2023-05-08T12:33:00;2.38;;;2.20;;
9330;SDS011;4704;50.470;12.072;2023-05-08T12:35:28;2.30;;;2.20;;
9330;SDS011;4704;50.470;12.072;2023-05-08T12:38:00;2.60;;;2.40;;
9330;SDS011;4704;50.470;12.072;2023-05-08T12:40:28;2.63;;;2.42;;
9330;SDS011;4704;50.470;12.072;2023-05-08T12:42:56;2.50;;;2.30;;
9330;SDS011;4704;50.470;12.072;2023-05-08T12:45:27;2.42;;;2.30;;
9330;SDS011;4704;50.470;12.072;2023-05-08T12:47:57;2.40;;;2.30;;
9330;SDS011;4704;50.470;12.072;2023-05-08T12:50:25;2.50;;;2.30;;
9330;SDS011;4704;50.470;12.072;2023-05-08T12:52:54;2.40;;;2.30;;
9330;SDS011;4704;50.470;12.072;2023-05-08T12:55:29;2.83;;;2.63;;
9330;SDS011;4704;50.470;12.072;2023-05-08T12:58:00;2.35;;;2.25;;
9330;SDS011;4704;50.470;12.072;2023-05-08T13:00:36;2.45;;;2.35;;
9330;SDS011;4704;50.470;12.072;2023-05-08T13:03:04;2.40;;;2.30;;
9330;SDS011;4704;50.470;12.072;2023-05-08T13:05:32;2.33;;;2.22;;
9330;SDS011;4704;50.470;12.072;2023-05-08T13:08:00;2.00;;;1.90;;
9330;SDS011;4704;50.470;12.072;2023-05-08T13:10:48;2.20;;;2.10;;
9330;SDS011;4704;50.470;12.072;2023-05-08T13:13:16;2.30;;;2.20;;
9330;SDS011;4704;50.470;12.072;2023-05-08T13:15:44;2.20;;;2.10;;
9330;SDS011;4704;50.470;12.072;2023-05-08T13:18:11;2.45;;;2.25;;
9330;SDS011;4704;50.470;12.072;2023-05-08T13:20:39;2.20;;;2.10;;
9330;SDS011;4704;50.470;12.072;2023-05-08T13:23:06;2.38;;;2.28;;
9330;SDS011;4704;50.470;12.072;2023-05-08T13:25:35;2.20;;;2.10;;
9330;SDS011;4704;50.470;12.072;2023-05-08T13:28:04;2.40;;;2.20;;
9330;SDS011;4704;50.470;12.072;2023-05-08T13:30:31;2.33;;;2.20;;
9330;SDS011;4704;50.470;12.072;2023-05-08T13:32:59;2.20;;;2.10;;
9330;SDS011;4704;50.470;12.072;2023-05-08T13:35:27;2.28;;;2.08;;
9330;SDS011;4704;50.470;12.072;2023-05-08T13:37:54;2.30;;;2.20;;
9330;SDS011;4704;50.470;12.072;2023-05-08T13:40:22;2.25;;;2.15;;
9330;SDS011;4704;50.470;12.072;2023-05-08T13:42:50;3.15;;;2.58;;
9330;SDS011;4704;50.470;12.072;2023-05-08T13:45:19;3.28;;;2.42;;
9330;SDS011;4704;50.470;12.072;2023-05-08T13:47:47;2.50;;;2.30;;
9330;SDS011;4704;50.470;12.072;2023-05-08T13:50:15;2.40;;;2.15;;
9330;SDS011;4704;50.470;12.072;2023-05-08T13:52:43;3.03;;;2.60;;
9330;SDS011;4704;50.470;12.072;2023-05-08T13:55:11;2.80;;;2.47;;
9330;SDS011;4704;50.470;12.072;2023-05-08T13:57:39;2.72;;;2.28;;
9330;SDS011;4704;50.470;12.072;2023-05-08T14:00:07;2.90;;;2.50;;
9330;SDS011;4704;50.470;12.072;2023-05-08T14:02:36;2.40;;;2.30;;
9330;SDS011;4704;50.470;12.072;2023-05-08T14:05:03;2.80;;;2.60;;
9330;SDS011;4704;50.470;12.072;2023-05-08T14:07:33;2.60;;;2.40;;
9330;SDS011;4704;50.470;12.072;2023-05-08T14:10:02;4.55;;;2.63;;
9330;SDS011;4704;50.470;12.072;2023-05-08T14:12:31;3.83;;;2.60;;
9330;SDS011;4704;50.470;12.072;2023-05-08T14:15:01;4.22;;;2.72;;
9330;SDS011;4704;50.470;12.072;2023-05-08T14:17:28;3.55;;;2.72;;
9330;SDS011;4704;50.470;12.072;2023-05-08T14:19:57;2.88;;;2.42;;
9330;SDS011;4704;50.470;12.072;2023-05-08T14:22:25;2.70;;;2.50;;
9330;SDS011;4704;50.470;12.072;2023-05-08T14:24:52;2.95;;;2.75;;
9330;SDS011;4704;50.470;12.072;2023-05-08T14:27:20;4.55;;;2.97;;
9330;SDS011;4704;50.470;12.072;2023-05-08T14:29:47;3.00;;;2.80;;
9330;SDS011;4704;50.470;12.072;2023-05-08T14:32:14;2.70;;;2.50;;
9330;SDS011;4704;50.470;12.072;2023-05-08T14:34:42;3.95;;;2.70;;
9330;SDS011;4704;50.470;12.072;2023-05-08T14:37:11;2.78;;;2.58;;
9330;SDS011;4704;50.470;12.072;2023-05-08T14:39:39;3.03;;;2.83;;
9330;SDS011;4704;50.470;12.072;2023-05-08T14:42:06;2.72;;;2.47;;
9330;SDS011;4704;50.470;12.072;2023-05-08T14:44:33;2.70;;;2.50;;
9330;SDS011;4704;50.470;12.072;2023-05-08T14:47:01;2.80;;;2.60;;
9330;SDS011;4704;50.470;12.072;2023-05-08T14:49:28;2.90;;;2.70;;
9330;SDS011;4704;50.470;12.072;2023-05-08T14:51:56;2.47;;;2.38;;
9330;SDS011;4704;50.470;12.072;2023-05-08T14:54:25;11.32;;;2.60;;
9330;SDS011;4704;50.470;12.072;2023-05-08T14:56:52;3.15;;;2.83;;
9330;SDS011;4704;50.470;12.072;2023-05-08T14:59:19;3.08;;;2.60;;
9330;SDS011;4704;50.470;12.072;2023-05-08T15:01:47;2.75;;;2.55;;
9330;SDS011;4704;50.470;12.072;2023-05-08T15:04:14;4.03;;;2.83;;
9330;SDS011;4704;50.470;12.072;2023-05-08T15:06:42;3.10;;;2.88;;